Time;durP1;ratioP1;P1;durP2;ratioP2;P2;SDS_P1;SDS_P2;PMS_P1;PMS_P2;Temp;Humidity;BMP_temperature;BMP_pressure;BME280_temperature;BME280_humidity;BME280_pressure;Samples;Min_cycle;Max_cycle;Signal;HPM_P1;HPM_P2
2022/09/03 00:01:24;;;;;;;0.10;0.10;;;;;;;;;;5061540;28;20245;-72
2022/09/03 00:03:52;;;;;;;0.10;0.10;;;;;;;;;;5067650;28;20273;-72
2022/09/03 00:06:23;;;;;;;0.10;0.10;;;;;;;;;;5061168;28;20543;-72
2022/09/03 00:08:53;;;;;;;0.00;0.00;;;;;;;;;;5067571;28;20539;-72
2022/09/03 00:11:21;;;;;;;0.10;0.10;;;;;;;;;;5061096;28;20570;-71
2022/09/03 00:13:54;;;;;;;0.10;0.10;;;;;;;;;;5067629;28;20200;-71
2022/09/03 00:16:22;;;;;;;0.10;0.10;;;;;;;;;;5061565;28;20498;-72
2022/09/03 00:18:50;;;;;;;0.10;0.10;;;;;;;;;;5067366;28;20200;-70
2022/09/03 00:21:21;;;;;;;0.10;0.10;;;;;;;;;;5060670;28;20249;-71
2022/09/03 00:23:48;;;;;;;0.10;0.10;;;;;;;;;;5067335;28;20215;-72
2022/09/03 00:26:21;;;;;;;0.10;0.10;;;;;;;;;;5060282;28;20239;-72
2022/09/03 00:28:54;;;;;;;0.10;0.10;;;;;;;;;;5067522;28;20195;-72
2022/09/03 00:31:25;;;;;;;0.10;0.10;;;;;;;;;;5061250;28;20257;-70
2022/09/03 00:33:55;;;;;;;0.10;0.10;;;;;;;;;;5066523;28;20189;-71
2022/09/03 00:36:23;;;;;;;0.10;0.10;;;;;;;;;;5060982;28;20243;-71
2022/09/03 00:38:51;;;;;;;0.08;0.08;;;;;;;;;;5067557;28;20210;-71
2022/09/03 00:41:21;;;;;;;0.10;0.10;;;;;;;;;;5060564;28;20313;-71
2022/09/03 00:44:03;;;;;;;0.10;0.10;;;;;;;;;;5067133;28;20239;-71
2022/09/03 00:46:32;;;;;;;0.10;0.10;;;;;;;;;;5062324;28;20239;-71
2022/09/03 00:49:06;;;;;;;0.10;0.10;;;;;;;;;;5066072;28;20273;-72
2022/09/03 00:51:35;;;;;;;0.00;0.00;;;;;;;;;;5063370;28;20238;-72
2022/09/03 00:54:06;;;;;;;0.10;0.10;;;;;;;;;;5069453;28;20201;-71
2022/09/03 00:56:38;;;;;;;0.10;0.10;;;;;;;;;;5066201;28;20245;-72
2022/09/03 00:59:11;;;;;;;0.10;0.10;;;;;;;;;;5069041;28;20366;-72
2022/09/03 01:01:44;;;;;;;0.10;0.10;;;;;;;;;;5066494;28;20250;-72
2022/09/03 01:04:20;;;;;;;0.00;0.00;;;;;;;;;;5068161;28;20219;-72
2022/09/03 01:06:52;;;;;;;0.10;0.10;;;;;;;;;;5067678;28;20256;-71
2022/09/03 01:09:28;;;;;;;0.10;0.10;;;;;;;;;;5066819;28;20229;-71
2022/09/03 01:11:59;;;;;;;0.10;0.10;;;;;;;;;;5068844;28;20245;-71
2022/09/03 01:14:31;;;;;;;0.10;0.10;;;;;;;;;;5065949;28;20191;-71
2022/09/03 01:17:02;;;;;;;0.10;0.10;;;;;;;;;;5069055;28;20622;-71
2022/09/03 01:19:38;;;;;;;0.00;0.00;;;;;;;;;;5065238;28;20283;-71
2022/09/03 01:22:19;;;;;;;0.10;0.10;;;;;;;;;;5069759;28;20241;-71
2022/09/03 01:24:58;;;;;;;0.00;0.00;;;;;;;;;;5064427;28;20223;-72
2022/09/03 01:27:32;;;;;;;0.10;0.10;;;;;;;;;;5069912;28;20243;-71
2022/09/03 01:30:02;;;;;;;0.00;0.00;;;;;;;;;;5064756;28;20200;-72
2022/09/03 01:32:32;;;;;;;0.10;0.10;;;;;;;;;;5069938;28;20557;-73
2022/09/03 01:35:02;;;;;;;0.10;0.10;;;;;;;;;;5064418;28;20205;-71
2022/09/03 01:37:35;;;;;;;0.10;0.10;;;;;;;;;;5069721;28;20242;-72
2022/09/03 01:40:05;;;;;;;0.10;0.10;;;;;;;;;;5064116;28;20272;-72
2022/09/03 01:42:38;;;;;;;0.10;0.10;;;;;;;;;;5052906;28;20215;-71
2022/09/03 01:45:23;;;;;;;0.00;0.00;;;;;;;;;;5064133;28;20260;-71
2022/09/03 01:47:56;;;;;;;0.10;0.10;;;;;;;;;;5064229;28;20284;-71
2022/09/03 01:50:33;;;;;;;0.10;0.10;;;;;;;;;;5056317;28;20218;-72
2022/09/03 01:53:04;;;;;;;0.10;0.10;;;;;;;;;;5075943;28;20255;-71
2022/09/03 01:55:32;;;;;;;0.10;0.10;;;;;;;;;;5057187;28;20304;-72
2022/09/03 01:58:00;;;;;;;0.10;0.10;;;;;;;;;;5076169;28;20274;-72
2022/09/03 02:00:30;;;;;;;0.10;0.10;;;;;;;;;;5056780;28;20246;-72
2022/09/03 02:03:02;;;;;;;0.10;0.10;;;;;;;;;;5075922;28;20238;-70
2022/09/03 02:05:29;;;;;;;0.10;0.10;;;;;;;;;;5056763;28;20243;-71
2022/09/03 02:07:59;;;;;;;0.10;0.10;;;;;;;;;;5075992;28;20278;-72
2022/09/03 02:10:29;;;;;;;0.10;0.10;;;;;;;;;;5056264;28;20643;-71
2022/09/03 02:12:57;;;;;;;0.07;0.07;;;;;;;;;;5076025;28;20221;-72
2022/09/03 02:15:24;;;;;;;0.10;0.10;;;;;;;;;;5055587;28;20209;-71
2022/09/03 02:17:54;;;;;;;0.00;0.00;;;;;;;;;;5076558;28;20418;-71
2022/09/03 02:20:22;;;;;;;0.10;0.10;;;;;;;;;;5055254;28;20226;-72
2022/09/03 02:22:49;;;;;;;0.10;0.10;;;;;;;;;;5076922;28;20231;-72
2022/09/03 02:25:16;;;;;;;0.10;0.10;;;;;;;;;;5054776;28;20239;-71
2022/09/03 02:27:43;;;;;;;0.10;0.10;;;;;;;;;;5077636;28;20188;-71
2022/09/03 02:30:10;;;;;;;0.10;0.10;;;;;;;;;;5053890;28;20203;-71
2022/09/03 02:32:37;;;;;;;0.10;0.10;;;;;;;;;;5078120;28;20273;-71
2022/09/03 02:35:03;;;;;;;0.10;0.10;;;;;;;;;;5063652;28;20277;-71
2022/09/03 02:37:31;;;;;;;0.10;0.10;;;;;;;;;;5051970;28;20271;-71
2022/09/03 02:39:57;;;;;;;0.10;0.10;;;;;;;;;;5063484;28;20228;-71
2022/09/03 02:42:24;;;;;;;0.00;0.00;;;;;;;;;;5068611;28;20427;-71
2022/09/03 02:44:52;;;;;;;0.10;0.10;;;;;;;;;;5062951;28;20263;-71
2022/09/03 02:47:19;;;;;;;0.10;0.10;;;;;;;;;;5068110;28;20257;-71
2022/09/03 02:49:46;;;;;;;0.00;0.00;;;;;;;;;;5063434;28;20297;-71
2022/09/03 02:52:12;;;;;;;0.07;0.07;;;;;;;;;;5068140;28;20244;-71
2022/09/03 02:54:40;;;;;;;0.10;0.10;;;;;;;;;;5063172;28;20261;-71
2022/09/03 02:57:07;;;;;;;0.10;0.10;;;;;;;;;;5068287;28;20252;-71
2022/09/03 02:59:33;;;;;;;0.03;0.03;;;;;;;;;;5063067;28;20204;-71
2022/09/03 03:01:59;;;;;;;0.10;0.10;;;;;;;;;;5067058;28;20245;-71
2022/09/03 03:04:26;;;;;;;0.00;0.00;;;;;;;;;;5063343;28;20232;-69
2022/09/03 03:06:52;;;;;;;0.00;0.00;;;;;;;;;;5066170;28;20285;-72
2022/09/03 03:09:19;;;;;;;0.10;0.10;;;;;;;;;;5064735;28;20205;-72
2022/09/03 03:11:49;;;;;;;0.10;0.10;;;;;;;;;;5065117;28;20241;-71
2022/09/03 03:14:15;;;;;;;0.10;0.10;;;;;;;;;;5064490;28;20251;-71
2022/09/03 03:16:42;;;;;;;0.10;0.10;;;;;;;;;;5064571;28;20300;-71
2022/09/03 03:19:08;;;;;;;0.10;0.10;;;;;;;;;;5065837;28;20401;-71
2022/09/03 03:21:34;;;;;;;0.10;0.10;;;;;;;;;;5063607;28;20577;-72
2022/09/03 03:24:01;;;;;;;0.10;0.10;;;;;;;;;;5066498;28;20256;-71
2022/09/03 03:26:28;;;;;;;0.10;0.10;;;;;;;;;;5062639;28;20301;-71
2022/09/03 03:28:57;;;;;;;0.10;0.10;;;;;;;;;;5067452;28;20260;-71
2022/09/03 03:31:24;;;;;;;0.10;0.10;;;;;;;;;;5061995;28;20263;-71
2022/09/03 03:33:51;;;;;;;0.10;0.10;;;;;;;;;;5067601;28;20240;-71
2022/09/03 03:36:17;;;;;;;0.10;0.10;;;;;;;;;;5061106;28;20245;-71
2022/09/03 03:38:44;;;;;;;0.10;0.10;;;;;;;;;;5068409;28;20272;-71
2022/09/03 03:41:11;;;;;;;0.10;0.10;;;;;;;;;;5060439;28;20535;-72
2022/09/03 03:43:37;;;;;;;0.10;0.10;;;;;;;;;;5069399;28;20539;-71
2022/09/03 03:46:05;;;;;;;0.10;0.10;;;;;;;;;;5059547;28;20393;-72
2022/09/03 03:48:32;;;;;;;0.10;0.10;;;;;;;;;;5070083;28;20210;-72
2022/09/03 03:51:00;;;;;;;0.10;0.10;;;;;;;;;;5058783;28;20244;-71
2022/09/03 03:53:26;;;;;;;0.10;0.10;;;;;;;;;;5070383;28;20205;-71
2022/09/03 03:55:56;;;;;;;0.10;0.10;;;;;;;;;;5057428;28;20267;-71
2022/09/03 03:58:22;;;;;;;0.10;0.10;;;;;;;;;;5071194;28;20207;-70
2022/09/03 04:00:49;;;;;;;0.00;0.00;;;;;;;;;;5055870;28;20240;-71
2022/09/03 04:03:17;;;;;;;0.10;0.10;;;;;;;;;;5073285;28;20196;-71
2022/09/03 04:05:43;;;;;;;0.03;0.03;;;;;;;;;;5056603;28;20596;-71
2022/09/03 04:08:09;;;;;;;0.10;0.10;;;;;;;;;;5072876;28;20237;-71
2022/09/03 04:10:36;;;;;;;0.10;0.10;;;;;;;;;;5055645;28;20246;-72
2022/09/03 04:13:02;;;;;;;0.10;0.10;;;;;;;;;;5073534;28;20204;-71
2022/09/03 04:15:28;;;;;;;0.10;0.10;;;;;;;;;;5054955;28;20263;-72
2022/09/03 04:17:55;;;;;;;0.10;0.10;;;;;;;;;;5074788;28;20366;-71
2022/09/03 04:20:22;;;;;;;0.10;0.10;;;;;;;;;;5053870;28;20401;-71
2022/09/03 04:22:49;;;;;;;0.00;0.00;;;;;;;;;;5075204;28;20479;-72
2022/09/03 04:25:15;;;;;;;0.10;0.10;;;;;;;;;;5053279;28;20244;-71
2022/09/03 04:27:43;;;;;;;0.10;0.10;;;;;;;;;;5080361;28;20200;-71
2022/09/03 04:30:10;;;;;;;0.10;0.10;;;;;;;;;;5056193;28;20197;-71
2022/09/03 04:32:55;;;;;;;0.10;0.10;;;;;;;;;;5080537;28;20198;-71
2022/09/03 04:35:24;;;;;;;0.10;0.10;;;;;;;;;;5057704;28;20248;-71
2022/09/03 04:37:50;;;;;;;0.10;0.10;;;;;;;;;;5078699;28;20218;-71
2022/09/03 04:40:17;;;;;;;0.10;0.10;;;;;;;;;;5056907;28;20214;-71
2022/09/03 04:42:43;;;;;;;0.10;0.10;;;;;;;;;;5079499;28;20589;-71
2022/09/03 04:45:10;;;;;;;0.10;0.10;;;;;;;;;;5055350;28;20230;-71
2022/09/03 04:47:37;;;;;;;0.10;0.10;;;;;;;;;;5080529;28;20237;-72
2022/09/03 04:50:04;;;;;;;0.10;0.10;;;;;;;;;;5065539;28;20278;-71
2022/09/03 04:52:32;;;;;;;0.10;0.10;;;;;;;;;;5053904;28;20217;-70
2022/09/03 04:54:58;;;;;;;0.10;0.10;;;;;;;;;;5065760;28;20262;-71
2022/09/03 04:57:33;;;;;;;0.10;0.10;;;;;;;;;;5070625;28;20325;-71
2022/09/03 04:59:59;;;;;;;0.10;0.10;;;;;;;;;;5065440;28;20402;-72
2022/09/03 05:02:25;;;;;;;0.00;0.00;;;;;;;;;;5070544;28;20426;-72
2022/09/03 05:04:52;;;;;;;0.10;0.10;;;;;;;;;;5065087;28;20228;-71
2022/09/03 05:07:19;;;;;;;0.10;0.10;;;;;;;;;;5070537;28;20248;-71
2022/09/03 05:09:47;;;;;;;0.10;0.10;;;;;;;;;;5065326;28;20228;-71
2022/09/03 05:12:16;;;;;;;0.10;0.10;;;;;;;;;;5070400;28;20629;-70
2022/09/03 05:14:42;;;;;;;0.10;0.10;;;;;;;;;;5065343;28;20239;-72
2022/09/03 05:17:09;;;;;;;0.10;0.10;;;;;;;;;;5070089;28;20267;-72
2022/09/03 05:19:35;;;;;;;0.10;0.10;;;;;;;;;;5064940;28;20208;-72
2022/09/03 05:22:02;;;;;;;0.10;0.10;;;;;;;;;;5069669;28;20509;-71
2022/09/03 05:24:28;;;;;;;0.10;0.10;;;;;;;;;;5065255;28;20230;-71
2022/09/03 05:26:56;;;;;;;0.00;0.00;;;;;;;;;;5068582;28;20308;-72
2022/09/03 05:29:23;;;;;;;0.00;0.00;;;;;;;;;;5066183;28;20245;-71
2022/09/03 05:31:49;;;;;;;0.10;0.10;;;;;;;;;;5067944;28;20272;-71
2022/09/03 05:34:15;;;;;;;0.10;0.10;;;;;;;;;;5067131;28;20214;-72
2022/09/03 05:36:42;;;;;;;0.10;0.10;;;;;;;;;;5066438;28;20512;-71
2022/09/03 05:39:08;;;;;;;0.00;0.00;;;;;;;;;;5067640;28;20500;-71
2022/09/03 05:41:34;;;;;;;0.10;0.10;;;;;;;;;;5066015;28;20249;-72
2022/09/03 05:44:07;;;;;;;0.10;0.10;;;;;;;;;;5068430;28;20205;-71
2022/09/03 05:46:35;;;;;;;0.10;0.10;;;;;;;;;;5065303;28;20355;-71
2022/09/03 05:49:03;;;;;;;0.10;0.10;;;;;;;;;;5068322;28;20213;-71
2022/09/03 05:51:30;;;;;;;0.10;0.10;;;;;;;;;;5064651;28;20241;-72
2022/09/03 05:53:57;;;;;;;0.10;0.10;;;;;;;;;;5068605;28;20205;-71
2022/09/03 05:56:28;;;;;;;0.10;0.10;;;;;;;;;;5064002;28;20242;-71
2022/09/03 05:58:56;;;;;;;0.10;0.10;;;;;;;;;;5068917;28;20199;-72
2022/09/03 06:01:25;;;;;;;0.10;0.10;;;;;;;;;;5063162;28;20253;-71
2022/09/03 06:03:54;;;;;;;0.10;0.10;;;;;;;;;;5070061;28;20205;-71
2022/09/03 06:06:22;;;;;;;0.10;0.10;;;;;;;;;;5063498;28;20298;-72
2022/09/03 06:08:50;;;;;;;0.10;0.10;;;;;;;;;;5069470;28;20206;-71
2022/09/03 06:11:16;;;;;;;0.10;0.10;;;;;;;;;;5062564;28;20241;-71
2022/09/03 06:13:46;;;;;;;0.10;0.10;;;;;;;;;;5070623;28;20236;-72
2022/09/03 06:16:13;;;;;;;0.10;0.10;;;;;;;;;;5062061;28;20296;-72
2022/09/03 06:18:41;;;;;;;0.10;0.10;;;;;;;;;;5070734;28;20272;-71
2022/09/03 06:21:07;;;;;;;0.10;0.10;;;;;;;;;;5061425;28;20241;-71
2022/09/03 06:23:34;;;;;;;0.10;0.10;;;;;;;;;;5071388;28;20457;-71
2022/09/03 06:26:02;;;;;;;0.10;0.10;;;;;;;;;;5060155;28;20247;-71
2022/09/03 06:28:28;;;;;;;0.10;0.10;;;;;;;;;;5071750;28;20471;-71
2022/09/03 06:30:57;;;;;;;0.10;0.10;;;;;;;;;;5058470;28;20244;-72
2022/09/03 06:33:24;;;;;;;0.10;0.10;;;;;;;;;;5073767;28;20233;-71
2022/09/03 06:35:56;;;;;;;0.00;0.00;;;;;;;;;;5058589;28;20251;-71
2022/09/03 06:38:23;;;;;;;0.10;0.10;;;;;;;;;;5073184;28;20193;-72
2022/09/03 06:40:51;;;;;;;0.10;0.10;;;;;;;;;;5058934;28;20316;-71
2022/09/03 06:43:18;;;;;;;0.10;0.10;;;;;;;;;;5072945;28;20213;-71
2022/09/03 06:45:52;;;;;;;0.00;0.00;;;;;;;;;;5058126;28;20315;-71
2022/09/03 06:48:18;;;;;;;0.10;0.10;;;;;;;;;;5072936;28;20364;-71
2022/09/03 06:50:53;;;;;;;0.10;0.10;;;;;;;;;;5057496;28;20245;-71
2022/09/03 06:53:22;;;;;;;0.10;0.10;;;;;;;;;;5072445;28;20531;-72
2022/09/03 06:55:52;;;;;;;0.10;0.10;;;;;;;;;;5058553;28;20304;-71
2022/09/03 06:58:18;;;;;;;0.10;0.10;;;;;;;;;;5072390;28;20205;-71
2022/09/03 07:00:45;;;;;;;0.10;0.10;;;;;;;;;;5057737;28;20412;-72
2022/09/03 07:03:11;;;;;;;0.10;0.10;;;;;;;;;;5062149;28;20302;-71
2022/09/03 07:05:38;;;;;;;0.10;0.10;;;;;;;;;;5056985;28;20275;-71
2022/09/03 07:08:04;;;;;;;0.00;0.00;;;;;;;;;;5073977;28;20270;-71
2022/09/03 07:10:33;;;;;;;0.10;0.10;;;;;;;;;;5055948;28;20626;-71
2022/09/03 07:13:00;;;;;;;0.03;0.03;;;;;;;;;;5074893;28;20205;-72
2022/09/03 07:15:26;;;;;;;0.10;0.10;;;;;;;;;;5055514;28;20288;-70
2022/09/03 07:17:53;;;;;;;0.10;0.10;;;;;;;;;;5075357;28;20212;-72
2022/09/03 07:20:20;;;;;;;0.10;0.10;;;;;;;;;;5054232;28;20207;-71
2022/09/03 07:22:46;;;;;;;0.03;0.03;;;;;;;;;;5076781;28;20561;-70
2022/09/03 07:25:12;;;;;;;0.10;0.10;;;;;;;;;;5051854;28;20228;-71
2022/09/03 07:27:40;;;;;;;0.07;0.07;;;;;;;;;;5077440;28;20498;-71
2022/09/03 07:30:09;;;;;;;0.00;0.00;;;;;;;;;;5053643;28;20203;-70
2022/09/03 07:32:39;;;;;;;0.10;0.10;;;;;;;;;;5077637;28;20242;-71
2022/09/03 07:35:05;;;;;;;0.03;0.03;;;;;;;;;;5062550;28;20197;-71
2022/09/03 07:37:32;;;;;;;0.00;0.00;;;;;;;;;;5051144;28;20272;-71
2022/09/03 07:39:59;;;;;;;0.03;0.03;;;;;;;;;;5062406;28;20243;-71
2022/09/03 07:42:26;;;;;;;0.10;0.10;;;;;;;;;;5067905;28;20288;-71
2022/09/03 07:44:54;;;;;;;0.10;0.10;;;;;;;;;;5062388;28;20207;-71
2022/09/03 07:47:20;;;;;;;0.00;0.00;;;;;;;;;;5067289;28;20314;-72
2022/09/03 07:49:56;;;;;;;0.10;0.10;;;;;;;;;;5062642;28;20391;-71
2022/09/03 07:52:23;;;;;;;0.00;0.00;;;;;;;;;;5067575;28;20243;-71
2022/09/03 07:54:52;;;;;;;0.10;0.10;;;;;;;;;;5062240;28;20204;-72
2022/09/03 07:57:18;;;;;;;0.00;0.00;;;;;;;;;;5067441;28;20245;-71
2022/09/03 07:59:45;;;;;;;0.03;0.03;;;;;;;;;;5062039;28;20208;-71
2022/09/03 08:02:13;;;;;;;0.10;0.10;;;;;;;;;;5073740;28;20238;-71
2022/09/03 08:04:39;;;;;;;0.03;0.03;;;;;;;;;;5068478;28;20202;-71
2022/09/03 08:07:06;;;;;;;0.10;0.10;;;;;;;;;;5073673;28;20248;-71
2022/09/03 08:09:32;;;;;;;0.00;0.00;;;;;;;;;;5068972;28;20204;-71
2022/09/03 08:11:59;;;;;;;0.00;0.00;;;;;;;;;;5073161;28;20239;-71
2022/09/03 08:14:25;;;;;;;0.00;0.00;;;;;;;;;;5069905;28;20220;-71
2022/09/03 08:16:51;;;;;;;0.00;0.00;;;;;;;;;;5072388;28;20586;-71
2022/09/03 08:19:19;;;;;;;0.08;0.08;;;;;;;;;;5070275;28;20204;-71
2022/09/03 08:21:46;;;;;;;0.05;0.05;;;;;;;;;;5071165;28;20300;-71
2022/09/03 08:24:14;;;;;;;0.10;0.10;;;;;;;;;;5070813;28;20243;-73
2022/09/03 08:26:41;;;;;;;0.10;0.10;;;;;;;;;;5070544;28;20244;-71
2022/09/03 08:29:08;;;;;;;0.10;0.10;;;;;;;;;;5071511;28;20233;-72
2022/09/03 08:31:35;;;;;;;0.05;0.05;;;;;;;;;;5069810;28;20323;-71
2022/09/03 08:34:05;;;;;;;0.08;0.08;;;;;;;;;;5072660;28;20260;-71
2022/09/03 08:36:34;;;;;;;0.10;0.10;;;;;;;;;;5069308;28;20240;-72
2022/09/03 08:39:03;;;;;;;0.10;0.10;;;;;;;;;;5072688;28;20264;-71
2022/09/03 08:41:33;;;;;;;0.00;0.00;;;;;;;;;;5069210;28;20569;-72
2022/09/03 08:44:11;;;;;;;0.03;0.03;;;;;;;;;;5072947;28;20251;-72
2022/09/03 08:46:43;;;;;;;0.10;0.10;;;;;;;;;;5070027;28;20847;-72
2022/09/03 08:49:11;;;;;;;0.10;0.10;;;;;;;;;;5071791;28;20225;-71
2022/09/03 08:51:39;;;;;;;0.10;0.10;;;;;;;;;;5069926;28;20334;-72
2022/09/03 08:54:07;;;;;;;0.10;0.10;;;;;;;;;;5072490;28;20403;-71
2022/09/03 08:56:37;;;;;;;0.10;0.10;;;;;;;;;;5069394;28;20279;-72
2022/09/03 08:59:04;;;;;;;0.00;0.00;;;;;;;;;;5072319;28;20208;-70
2022/09/03 09:01:35;;;;;;;0.00;0.00;;;;;;;;;;5068728;28;20500;-71
2022/09/03 09:04:07;;;;;;;0.00;0.00;;;;;;;;;;5072821;28;20472;-70
2022/09/03 09:06:35;;;;;;;0.10;0.10;;;;;;;;;;5069081;28;20236;-69
2022/09/03 09:09:09;;;;;;;0.03;0.03;;;;;;;;;;5072609;28;20209;-74
2022/09/03 09:11:46;;;;;;;0.03;0.03;;;;;;;;;;5069135;28;20289;-71
2022/09/03 09:14:16;;;;;;;0.00;0.00;;;;;;;;;;5067934;28;20384;-72
2022/09/03 09:16:47;;;;;;;0.10;0.10;;;;;;;;;;5067369;28;20486;-71
2022/09/03 09:19:23;;;;;;;0.10;0.10;;;;;;;;;;5067251;28;20265;-71
2022/09/03 09:21:53;;;;;;;0.03;0.03;;;;;;;;;;5068077;28;20257;-72
2022/09/03 09:24:22;;;;;;;0.00;0.00;;;;;;;;;;5066538;28;20237;-73
2022/09/03 09:26:49;;;;;;;0.00;0.00;;;;;;;;;;5068085;28;20300;-71
2022/09/03 09:29:16;;;;;;;0.00;0.00;;;;;;;;;;5066668;28;20202;-71
2022/09/03 09:31:44;;;;;;;0.00;0.00;;;;;;;;;;5066916;28;20278;-71
2022/09/03 09:34:11;;;;;;;0.00;0.00;;;;;;;;;;5067712;28;20254;-72
2022/09/03 09:36:43;;;;;;;0.00;0.00;;;;;;;;;;5066122;28;20243;-72
2022/09/03 09:39:10;;;;;;;0.00;0.00;;;;;;;;;;5067549;28;20195;-72
2022/09/03 09:41:38;;;;;;;0.00;0.00;;;;;;;;;;5065993;28;20241;-71
2022/09/03 09:44:05;;;;;;;0.10;0.10;;;;;;;;;;5067981;28;20206;-71
2022/09/03 09:46:34;;;;;;;0.00;0.00;;;;;;;;;;5064737;28;20241;-71
2022/09/03 09:49:00;;;;;;;0.00;0.00;;;;;;;;;;5068313;28;20540;-72
2022/09/03 09:51:29;;;;;;;0.00;0.00;;;;;;;;;;5064510;28;20313;-73
2022/09/03 09:54:03;;;;;;;0.10;0.10;;;;;;;;;;5068623;28;20211;-71
2022/09/03 09:56:30;;;;;;;0.00;0.00;;;;;;;;;;5064568;28;20235;-71
2022/09/03 09:59:05;;;;;;;0.00;0.00;;;;;;;;;;5068567;28;20204;-72
2022/09/03 10:01:31;;;;;;;0.00;0.00;;;;;;;;;;5064795;28;20247;-72
2022/09/03 10:03:59;;;;;;;0.00;0.00;;;;;;;;;;5068551;28;20208;-71
2022/09/03 10:09:12;;;;;;;0.00;0.00;;;;;;;;;;5066715;28;20238;-71
2022/09/03 10:11:39;;;;;;;0.00;0.00;;;;;;;;;;5065401;28;20246;-71
2022/09/03 10:14:09;;;;;;;0.00;0.00;;;;;;;;;;5066897;28;20276;-72
2022/09/03 10:16:39;;;;;;;0.00;0.00;;;;;;;;;;5064991;28;20243;-72
2022/09/03 10:19:09;;;;;;;0.00;0.00;;;;;;;;;;5066835;28;20235;-71
2022/09/03 10:21:39;;;;;;;0.00;0.00;;;;;;;;;;5065042;28;20243;-71
2022/09/03 10:24:17;;;;;;;0.10;0.10;;;;;;;;;;5066598;28;20272;-72
2022/09/03 10:26:45;;;;;;;0.00;0.00;;;;;;;;;;5065975;28;20241;-72
2022/09/03 10:29:17;;;;;;;0.00;0.00;;;;;;;;;;5066544;28;20204;-72
2022/09/03 10:31:52;;;;;;;0.08;0.08;;;;;;;;;;5065696;28;20235;-71
2022/09/03 10:34:22;;;;;;;0.03;0.03;;;;;;;;;;5065222;28;20192;-73
2022/09/03 10:36:52;;;;;;;0.00;0.00;;;;;;;;;;5066238;28;20246;-72
2022/09/03 10:39:21;;;;;;;0.00;0.00;;;;;;;;;;5065359;28;20208;-72
2022/09/03 10:41:58;;;;;;;0.00;0.00;;;;;;;;;;5066324;28;20311;-73
2022/09/03 10:44:34;;;;;;;0.00;0.00;;;;;;;;;;5064217;28;20223;-73
2022/09/03 10:47:06;;;;;;;0.00;0.00;;;;;;;;;;5067622;28;20302;-71
2022/09/03 10:49:39;;;;;;;0.10;0.10;;;;;;;;;;5063356;28;20295;-72
2022/09/03 10:52:09;;;;;;;0.00;0.00;;;;;;;;;;5068084;28;20239;-73
2022/09/03 10:54:44;;;;;;;0.10;0.10;;;;;;;;;;5063357;28;20227;-71
2022/09/03 10:57:17;;;;;;;0.10;0.10;;;;;;;;;;5068222;28;20509;-72
2022/09/03 10:59:54;;;;;;;0.00;0.00;;;;;;;;;;5062928;28;20283;-72
2022/09/03 11:02:29;;;;;;;0.03;0.03;;;;;;;;;;5067877;28;20261;-72
2022/09/03 11:04:58;;;;;;;0.08;0.08;;;;;;;;;;5063139;28;20192;-72
2022/09/03 11:07:29;;;;;;;0.00;0.00;;;;;;;;;;5067783;28;20294;-71
2022/09/03 11:09:58;;;;;;;0.00;0.00;;;;;;;;;;5062957;28;20201;-72
2022/09/03 11:12:26;;;;;;;0.00;0.00;;;;;;;;;;5067922;28;20312;-71
2022/09/03 11:14:57;;;;;;;0.00;0.00;;;;;;;;;;5062680;28;20207;-72
2022/09/03 11:17:25;;;;;;;0.00;0.00;;;;;;;;;;5067602;28;20292;-72
2022/09/03 11:19:54;;;;;;;0.00;0.00;;;;;;;;;;5062507;28;20204;-72
2022/09/03 11:22:22;;;;;;;0.08;0.08;;;;;;;;;;5067763;28;20317;-72
2022/09/03 11:24:53;;;;;;;0.00;0.00;;;;;;;;;;5062962;28;20215;-71
2022/09/03 11:27:25;;;;;;;0.00;0.00;;;;;;;;;;5067790;28;20231;-71
2022/09/03 11:29:53;;;;;;;0.00;0.00;;;;;;;;;;5062674;28;20238;-71
2022/09/03 11:32:24;;;;;;;0.00;0.00;;;;;;;;;;5067677;28;20268;-72
2022/09/03 11:34:51;;;;;;;0.00;0.00;;;;;;;;;;5062082;28;20503;-71
2022/09/03 11:37:19;;;;;;;0.10;0.10;;;;;;;;;;5067426;28;20262;-72
2022/09/03 11:39:53;;;;;;;0.03;0.03;;;;;;;;;;5062682;28;20241;-72
2022/09/03 11:42:26;;;;;;;0.00;0.00;;;;;;;;;;5067716;28;20609;-72
2022/09/03 11:44:52;;;;;;;0.00;0.00;;;;;;;;;;5062578;28;20209;-71
2022/09/03 11:47:23;;;;;;;0.00;0.00;;;;;;;;;;5067171;28;20332;-72
2022/09/03 11:49:51;;;;;;;0.00;0.00;;;;;;;;;;5062456;28;20214;-71
2022/09/03 11:52:26;;;;;;;0.00;0.00;;;;;;;;;;5067706;28;20593;-71
2022/09/03 11:54:52;;;;;;;0.10;0.10;;;;;;;;;;5062413;28;20410;-72
2022/09/03 11:57:22;;;;;;;0.03;0.03;;;;;;;;;;5067353;28;20238;-72
2022/09/03 11:59:52;;;;;;;0.00;0.00;;;;;;;;;;5062065;28;20207;-70
2022/09/03 12:02:24;;;;;;;0.00;0.00;;;;;;;;;;5067334;28;20249;-69
2022/09/03 12:04:56;;;;;;;0.00;0.00;;;;;;;;;;5062063;28;20278;-69
2022/09/03 12:07:35;;;;;;;0.10;0.10;;;;;;;;;;5067464;28;20247;-69
2022/09/03 12:10:12;;;;;;;0.00;0.00;;;;;;;;;;5062276;28;20222;-70
2022/09/03 12:12:53;;;;;;;0.10;0.10;;;;;;;;;;5053931;28;20268;-70
2022/09/03 12:15:37;;;;;;;0.00;0.00;;;;;;;;;;5053632;28;20229;-70
2022/09/03 12:18:20;;;;;;;0.00;0.00;;;;;;;;;;5073780;28;20273;-69
2022/09/03 12:20:49;;;;;;;0.00;0.00;;;;;;;;;;5057402;28;20243;-70
2022/09/03 12:23:27;;;;;;;0.05;0.05;;;;;;;;;;5072035;28;20246;-69
2022/09/03 12:25:53;;;;;;;0.10;0.10;;;;;;;;;;5058225;28;20268;-69
2022/09/03 12:28:22;;;;;;;0.00;0.00;;;;;;;;;;5071117;28;20224;-69
2022/09/03 12:30:52;;;;;;;0.10;0.10;;;;;;;;;;5057551;28;20398;-69
2022/09/03 12:33:19;;;;;;;0.10;0.10;;;;;;;;;;5071369;28;20207;-69
2022/09/03 12:35:56;;;;;;;0.00;0.00;;;;;;;;;;5057072;28;20266;-70
2022/09/03 12:38:23;;;;;;;0.00;0.00;;;;;;;;;;5070840;28;20192;-70
2022/09/03 12:40:50;;;;;;;0.00;0.00;;;;;;;;;;5057492;28;20257;-69
2022/09/03 12:43:17;;;;;;;0.00;0.00;;;;;;;;;;5071616;28;20451;-68
2022/09/03 12:45:44;;;;;;;0.00;0.00;;;;;;;;;;5056374;28;20243;-70
2022/09/03 12:48:13;;;;;;;0.00;0.00;;;;;;;;;;5073628;28;20238;-68
2022/09/03 12:50:39;;;;;;;0.10;0.10;;;;;;;;;;5059818;28;20312;-69
2022/09/03 12:53:08;;;;;;;0.10;0.10;;;;;;;;;;5076465;28;20452;-70
2022/09/03 12:55:37;;;;;;;0.00;0.00;;;;;;;;;;5059353;28;20262;-69
2022/09/03 12:58:05;;;;;;;0.00;0.00;;;;;;;;;;5076864;28;20415;-69
2022/09/03 13:00:32;;;;;;;0.00;0.00;;;;;;;;;;5058774;28;20430;-69
2022/09/03 13:03:01;;;;;;;0.00;0.00;;;;;;;;;;5077399;28;20453;-69
2022/09/03 13:05:32;;;;;;;0.03;0.03;;;;;;;;;;5058018;28;20247;-69
2022/09/03 13:08:04;;;;;;;0.00;0.00;;;;;;;;;;5077399;28;20288;-69
2022/09/03 13:10:33;;;;;;;0.05;0.05;;;;;;;;;;5058196;28;20241;-69
2022/09/03 13:13:01;;;;;;;0.00;0.00;;;;;;;;;;5077252;28;20383;-70
2022/09/03 13:15:28;;;;;;;0.00;0.00;;;;;;;;;;5057972;28;20253;-70
2022/09/03 13:18:06;;;;;;;0.00;0.00;;;;;;;;;;5078335;28;20223;-70
2022/09/03 13:20:38;;;;;;;0.00;0.00;;;;;;;;;;5058332;28;20242;-70
2022/09/03 13:23:12;;;;;;;0.08;0.08;;;;;;;;;;5076065;28;20224;-72
2022/09/03 13:25:45;;;;;;;0.00;0.00;;;;;;;;;;5059128;28;20238;-71
2022/09/03 13:28:21;;;;;;;0.10;0.10;;;;;;;;;;5074973;28;20239;-71
2022/09/03 13:30:50;;;;;;;0.00;0.00;;;;;;;;;;5060094;28;20566;-70
2022/09/03 13:33:20;;;;;;;0.00;0.00;;;;;;;;;;5074278;28;20206;-70
2022/09/03 13:35:48;;;;;;;0.00;0.00;;;;;;;;;;5059900;28;20242;-69
2022/09/03 13:38:19;;;;;;;0.00;0.00;;;;;;;;;;5075006;28;20200;-69
2022/09/03 13:40:48;;;;;;;0.10;0.10;;;;;;;;;;5059669;28;20465;-69
2022/09/03 13:43:21;;;;;;;0.00;0.00;;;;;;;;;;5074763;28;20204;-70
2022/09/03 13:45:50;;;;;;;0.00;0.00;;;;;;;;;;5059863;28;20274;-70
2022/09/03 13:51:07;;;;;;;0.00;0.00;;;;;;;;;;5061915;28;20288;-70
2022/09/03 13:53:41;;;;;;;0.00;0.00;;;;;;;;;;5071657;28;20243;-69
2022/09/03 13:56:15;;;;;;;0.00;0.00;;;;;;;;;;5062183;28;20254;-69
2022/09/03 13:58:44;;;;;;;0.00;0.00;;;;;;;;;;5070410;28;20227;-69
2022/09/03 14:01:16;;;;;;;0.00;0.00;;;;;;;;;;5062337;28;20239;-68
2022/09/03 14:03:45;;;;;;;0.00;0.00;;;;;;;;;;5070508;28;20200;-69
2022/09/03 14:06:13;;;;;;;0.00;0.00;;;;;;;;;;5062783;28;20300;-68
2022/09/03 14:08:47;;;;;;;0.00;0.00;;;;;;;;;;5070725;28;20387;-70
2022/09/03 14:11:24;;;;;;;0.00;0.00;;;;;;;;;;5062694;28;20516;-69
2022/09/03 14:14:00;;;;;;;0.00;0.00;;;;;;;;;;5069358;28;20355;-70
2022/09/03 14:16:30;;;;;;;0.00;0.00;;;;;;;;;;5064300;28;20239;-68
2022/09/03 14:19:01;;;;;;;0.10;0.10;;;;;;;;;;5068361;28;20188;-69
2022/09/03 14:21:29;;;;;;;0.00;0.00;;;;;;;;;;5064258;28;20239;-69
2022/09/03 14:24:01;;;;;;;0.10;0.10;;;;;;;;;;5068392;28;20204;-72
2022/09/03 14:26:31;;;;;;;0.00;0.00;;;;;;;;;;5064227;28;20337;-69
2022/09/03 14:29:01;;;;;;;0.00;0.00;;;;;;;;;;5068279;28;20476;-69
2022/09/03 14:31:34;;;;;;;0.00;0.00;;;;;;;;;;5063971;28;20243;-69
2022/09/03 14:34:05;;;;;;;0.00;0.00;;;;;;;;;;5067678;28;20267;-68
2022/09/03 14:36:35;;;;;;;0.00;0.00;;;;;;;;;;5064299;28;20243;-69
2022/09/03 14:39:23;;;;;;;0.00;0.00;;;;;;;;;;5067468;28;20535;-68
2022/09/03 14:42:11;;;;;;;0.00;0.00;;;;;;;;;;5065366;28;20637;-69
2022/09/03 14:44:59;;;;;;;0.00;0.00;;;;;;;;;;5063934;28;20452;-70
2022/09/03 14:47:30;;;;;;;0.00;0.00;;;;;;;;;;5064272;28;20278;-68
2022/09/03 14:50:09;;;;;;;0.03;0.03;;;;;;;;;;5063458;28;20441;-68
2022/09/03 14:52:42;;;;;;;0.00;0.00;;;;;;;;;;5051787;28;20214;-69
2022/09/03 14:55:14;;;;;;;0.10;0.10;;;;;;;;;;5053426;28;20199;-68
2022/09/03 14:57:49;;;;;;;0.00;0.00;;;;;;;;;;5077396;28;20188;-68
2022/09/03 15:00:16;;;;;;;0.00;0.00;;;;;;;;;;5053940;28;20217;-68
2022/09/03 15:02:49;;;;;;;0.00;0.00;;;;;;;;;;5077077;28;20263;-67